sensor_id;sensor_type;location;lat;lon;timestamp;pressure;altitude;pressure_sealevel;temperature;humidity
77776;BME280;66965;43.328;6.668;2023-07-13T00:02:17;101306.69;;;26.23;100.00
77776;BME280;66965;43.328;6.668;2023-07-13T00:04:43;101316.97;;;26.18;100.00
77776;BME280;66965;43.328;6.668;2023-07-13T00:07:08;101307.22;;;26.17;100.00
77776;BME280;66965;43.328;6.668;2023-07-13T00:09:34;101282.91;;;26.30;100.00
77776;BME280;66965;43.328;6.668;2023-07-13T00:12:00;101274.94;;;26.39;100.00
77776;BME280;66965;43.328;6.668;2023-07-13T00:14:27;101263.69;;;26.23;100.00
77776;BME280;66965;43.328;6.668;2023-07-13T00:16:53;101267.38;;;26.22;100.00
77776;BME280;66965;43.328;6.668;2023-07-13T00:19:18;101256.81;;;26.08;100.00
77776;BME280;66965;43.328;6.668;2023-07-13T00:21:44;101241.94;;;26.15;100.00
77776;BME280;66965;43.328;6.668;2023-07-13T00:24:14;101232.91;;;26.16;100.00
77776;BME280;66965;43.328;6.668;2023-07-13T00:26:41;101218.84;;;26.24;100.00
77776;BME280;66965;43.328;6.668;2023-07-13T00:29:10;101209.31;;;26.42;100.00
77776;BME280;66965;43.328;6.668;2023-07-13T00:31:35;101211.16;;;26.41;100.00
77776;BME280;66965;43.328;6.668;2023-07-13T00:34:02;101210.94;;;26.22;100.00
77776;BME280;66965;43.328;6.668;2023-07-13T00:36:27;101229.22;;;25.95;100.00
77776;BME280;66965;43.328;6.668;2023-07-13T00:38:53;101245.16;;;25.74;100.00
77776;BME280;66965;43.328;6.668;2023-07-13T00:41:19;101248.25;;;25.81;100.00
77776;BME280;66965;43.328;6.668;2023-07-13T00:43:44;101245.16;;;25.74;100.00
77776;BME280;66965;43.328;6.668;2023-07-13T00:46:18;101248.25;;;25.81;100.00
77776;BME280;66965;43.328;6.668;2023-07-13T00:48:46;101251.66;;;25.83;100.00
77776;BME280;66965;43.328;6.668;2023-07-13T00:51:13;101259.84;;;25.81;100.00
77776;BME280;66965;43.328;6.668;2023-07-13T00:53:40;101280.75;;;25.89;100.00
77776;BME280;66965;43.328;6.668;2023-07-13T00:56:05;101298.38;;;25.69;100.00
77776;BME280;66965;43.328;6.668;2023-07-13T00:58:32;101302.03;;;25.57;100.00
77776;BME280;66965;43.328;6.668;2023-07-13T01:00:58;101299.56;;;25.54;100.00
77776;BME280;66965;43.328;6.668;2023-07-13T01:03:24;101282.53;;;25.43;100.00
77776;BME280;66965;43.328;6.668;2023-07-13T01:05:49;101279.34;;;25.72;100.00
77776;BME280;66965;43.328;6.668;2023-07-13T01:08:15;101242.75;;;25.93;100.00
77776;BME280;66965;43.328;6.668;2023-07-13T01:10:50;101236.03;;;25.99;100.00
77776;BME280;66965;43.328;6.668;2023-07-13T01:13:15;101226.63;;;25.93;100.00
77776;BME280;66965;43.328;6.668;2023-07-13T01:15:46;101223.47;;;26.11;100.00
77776;BME280;66965;43.328;6.668;2023-07-13T01:18:24;101228.25;;;26.18;100.00
77776;BME280;66965;43.328;6.668;2023-07-13T01:20:57;101251.72;;;26.27;100.00
77776;BME280;66965;43.328;6.668;2023-07-13T01:23:24;101261.25;;;26.20;100.00
77776;BME280;66965;43.328;6.668;2023-07-13T01:25:50;101250.88;;;26.27;100.00
77776;BME280;66965;43.328;6.668;2023-07-13T01:28:16;101247.56;;;26.23;100.00
77776;BME280;66965;43.328;6.668;2023-07-13T01:30:43;101241.94;;;26.15;100.00
77776;BME280;66965;43.328;6.668;2023-07-13T01:33:12;101254.84;;;25.88;100.00
77776;BME280;66965;43.328;6.668;2023-07-13T01:35:37;101262.03;;;25.76;100.00
77776;BME280;66965;43.328;6.668;2023-07-13T01:38:04;101274.47;;;25.77;100.00
77776;BME280;66965;43.328;6.668;2023-07-13T01:40:30;101262.16;;;25.86;100.00
77776;BME280;66965;43.328;6.668;2023-07-13T01:42:55;101258.00;;;25.93;100.00
77776;BME280;66965;43.328;6.668;2023-07-13T01:45:21;101261.78;;;25.90;100.00
77776;BME280;66965;43.328;6.668;2023-07-13T01:47:46;101262.38;;;25.72;100.00
77776;BME280;66965;43.328;6.668;2023-07-13T01:50:12;101263.16;;;25.96;100.00
77776;BME280;66965;43.328;6.668;2023-07-13T01:52:37;101262.91;;;25.99;100.00
77776;BME280;66965;43.328;6.668;2023-07-13T01:55:03;101269.53;;;25.95;100.00
77776;BME280;66965;43.328;6.668;2023-07-13T01:57:29;101266.06;;;25.93;100.00
77776;BME280;66965;43.328;6.668;2023-07-13T01:59:54;101254.50;;;26.04;100.00
77776;BME280;66965;43.328;6.668;2023-07-13T02:02:19;101230.66;;;26.10;100.00
77776;BME280;66965;43.328;6.668;2023-07-13T02:04:45;101228.41;;;26.17;100.00
77776;BME280;66965;43.328;6.668;2023-07-13T02:07:10;101235.47;;;26.18;100.00
77776;BME280;66965;43.328;6.668;2023-07-13T02:09:36;101242.94;;;26.14;100.00
77776;BME280;66965;43.328;6.668;2023-07-13T02:12:01;101245.69;;;26.02;100.00
77776;BME280;66965;43.328;6.668;2023-07-13T02:14:27;101247.66;;;26.00;100.00
77776;BME280;66965;43.328;6.668;2023-07-13T02:16:52;101259.72;;;25.83;100.00
77776;BME280;66965;43.328;6.668;2023-07-13T02:19:18;101264.59;;;25.78;100.00
77776;BME280;66965;43.328;6.668;2023-07-13T02:21:43;101268.88;;;25.80;100.00
77776;BME280;66965;43.328;6.668;2023-07-13T02:24:08;101273.38;;;25.80;100.00
77776;BME280;66965;43.328;6.668;2023-07-13T02:26:34;101273.78;;;25.86;100.00
77776;BME280;66965;43.328;6.668;2023-07-13T02:28:59;101271.69;;;25.79;100.00
77776;BME280;66965;43.328;6.668;2023-07-13T02:31:25;101279.78;;;25.90;100.00
77776;BME280;66965;43.328;6.668;2023-07-13T02:33:51;101266.69;;;25.85;100.00
77776;BME280;66965;43.328;6.668;2023-07-13T02:36:16;101265.59;;;25.88;100.00
77776;BME280;66965;43.328;6.668;2023-07-13T02:38:44;101270.47;;;25.94;100.00
77776;BME280;66965;43.328;6.668;2023-07-13T02:41:09;101276.31;;;25.77;100.00
77776;BME280;66965;43.328;6.668;2023-07-13T02:43:35;101272.78;;;25.76;100.00
77776;BME280;66965;43.328;6.668;2023-07-13T02:46:01;101251.38;;;25.64;100.00
77776;BME280;66965;43.328;6.668;2023-07-13T02:48:33;101256.28;;;25.70;100.00
77776;BME280;66965;43.328;6.668;2023-07-13T02:50:58;101247.13;;;25.72;100.00
77776;BME280;66965;43.328;6.668;2023-07-13T02:53:24;101243.72;;;25.81;100.00
77776;BME280;66965;43.328;6.668;2023-07-13T02:55:50;101238.59;;;25.78;100.00
77776;BME280;66965;43.328;6.668;2023-07-13T02:58:16;101244.25;;;25.98;100.00
77776;BME280;66965;43.328;6.668;2023-07-13T03:00:45;101243.63;;;26.05;100.00
77776;BME280;66965;43.328;6.668;2023-07-13T03:03:12;101250.47;;;26.09;100.00
77776;BME280;66965;43.328;6.668;2023-07-13T03:05:40;101246.69;;;26.12;100.00
77776;BME280;66965;43.328;6.668;2023-07-13T03:08:07;101249.03;;;26.16;100.00
77776;BME280;66965;43.328;6.668;2023-07-13T03:10:33;101254.19;;;26.19;100.00
77776;BME280;66965;43.328;6.668;2023-07-13T03:12:58;101253.75;;;26.13;100.00
77776;BME280;66965;43.328;6.668;2023-07-13T03:15:24;101252.69;;;26.15;100.00
77776;BME280;66965;43.328;6.668;2023-07-13T03:17:49;101247.22;;;26.17;100.00
77776;BME280;66965;43.328;6.668;2023-07-13T03:20:15;101241.94;;;26.15;100.00
77776;BME280;66965;43.328;6.668;2023-07-13T03:22:40;101249.22;;;25.91;100.00
77776;BME280;66965;43.328;6.668;2023-07-13T03:25:07;101252.31;;;26.09;100.00
77776;BME280;66965;43.328;6.668;2023-07-13T03:27:32;101246.06;;;25.97;100.00
77776;BME280;66965;43.328;6.668;2023-07-13T03:29:57;101242.53;;;26.08;100.00
77776;BME280;66965;43.328;6.668;2023-07-13T03:32:23;101245.13;;;26.20;100.00
77776;BME280;66965;43.328;6.668;2023-07-13T03:34:48;101235.09;;;26.11;100.00
77776;BME280;66965;43.328;6.668;2023-07-13T03:37:14;101235.94;;;26.12;100.00
77776;BME280;66965;43.328;6.668;2023-07-13T03:39:39;101249.28;;;26.24;100.00
77776;BME280;66965;43.328;6.668;2023-07-13T03:42:05;101242.69;;;26.17;100.00
77776;BME280;66965;43.328;6.668;2023-07-13T03:44:31;101244.28;;;26.20;100.00
77776;BME280;66965;43.328;6.668;2023-07-13T03:46:56;101250.59;;;26.08;100.00
77776;BME280;66965;43.328;6.668;2023-07-13T03:49:22;101240.47;;;26.11;100.00
77776;BME280;66965;43.328;6.668;2023-07-13T03:51:47;101242.06;;;26.14;100.00
77776;BME280;66965;43.328;6.668;2023-07-13T03:54:12;101230.47;;;26.13;100.00
77776;BME280;66965;43.328;6.668;2023-07-13T03:56:38;101235.56;;;26.05;100.00
77776;BME280;66965;43.328;6.668;2023-07-13T03:59:03;101244.81;;;26.01;100.00
77776;BME280;66965;43.328;6.668;2023-07-13T04:01:29;101248.72;;;25.86;100.00
77776;BME280;66965;43.328;6.668;2023-07-13T04:03:55;101251.41;;;25.86;100.00
77776;BME280;66965;43.328;6.668;2023-07-13T04:06:27;101237.63;;;25.90;100.00
77776;BME280;66965;43.328;6.668;2023-07-13T04:08:57;101245.94;;;25.76;100.00
77776;BME280;66965;43.328;6.668;2023-07-13T04:11:24;101247.97;;;25.73;100.00
77776;BME280;66965;43.328;6.668;2023-07-13T04:13:51;101252.38;;;25.85;100.00
77776;BME280;66965;43.328;6.668;2023-07-13T04:16:17;101258.00;;;25.71;100.00
77776;BME280;66965;43.328;6.668;2023-07-13T04:18:44;101246.50;;;25.69;100.00
77776;BME280;66965;43.328;6.668;2023-07-13T04:21:09;101241.16;;;25.80;100.00
77776;BME280;66965;43.328;6.668;2023-07-13T04:23:36;101239.47;;;25.90;100.00
77776;BME280;66965;43.328;6.668;2023-07-13T04:26:02;101243.84;;;25.80;100.00
77776;BME280;66965;43.328;6.668;2023-07-13T04:28:28;101240.56;;;25.76;100.00
77776;BME280;66965;43.328;6.668;2023-07-13T04:30:54;101243.25;;;25.76;100.00
77776;BME280;66965;43.328;6.668;2023-07-13T04:33:20;101251.28;;;25.76;100.00
77776;BME280;66965;43.328;6.668;2023-07-13T04:35:50;101254.59;;;25.80;100.00
77776;BME280;66965;43.328;6.668;2023-07-13T04:38:20;101255.69;;;25.77;100.00
77776;BME280;66965;43.328;6.668;2023-07-13T04:40:45;101266.16;;;25.69;100.00
77776;BME280;66965;43.328;6.668;2023-07-13T04:43:11;101262.38;;;25.72;100.00
77776;BME280;66965;43.328;6.668;2023-07-13T04:48:12;101258.72;;;25.73;100.00
77776;BME280;66965;43.328;6.668;2023-07-13T04:50:37;101263.63;;;25.79;100.00
77776;BME280;66965;43.328;6.668;2023-07-13T04:53:03;101263.41;;;25.82;100.00
77776;BME280;66965;43.328;6.668;2023-07-13T04:55:29;101266.44;;;25.88;100.00
77776;BME280;66965;43.328;6.668;2023-07-13T04:57:56;101279.53;;;25.82;100.00
77776;BME280;66965;43.328;6.668;2023-07-13T05:00:21;101281.09;;;25.84;100.00
77776;BME280;66965;43.328;6.668;2023-07-13T05:02:47;101273.31;;;25.92;100.00
77776;BME280;66965;43.328;6.668;2023-07-13T05:05:13;101279.28;;;25.96;100.00
77776;BME280;66965;43.328;6.668;2023-07-13T05:07:38;101282.47;;;25.90;100.00
77776;BME280;66965;43.328;6.668;2023-07-13T05:10:04;101284.38;;;25.88;100.00
77776;BME280;66965;43.328;6.668;2023-07-13T05:12:30;101289.31;;;26.05;100.00
77776;BME280;66965;43.328;6.668;2023-07-13T05:14:56;101278.56;;;26.05;100.00
77776;BME280;66965;43.328;6.668;2023-07-13T05:17:22;101283.94;;;26.05;100.00
77776;BME280;66965;43.328;6.668;2023-07-13T05:19:47;101281.75;;;26.10;100.00
77776;BME280;66965;43.328;6.668;2023-07-13T05:22:13;101284.72;;;26.29;100.00
77776;BME280;66965;43.328;6.668;2023-07-13T05:24:38;101288.66;;;26.25;100.00
77776;BME280;66965;43.328;6.668;2023-07-13T05:27:04;101288.75;;;26.35;100.00
77776;BME280;66965;43.328;6.668;2023-07-13T05:29:29;101287.78;;;26.25;100.00
77776;BME280;66965;43.328;6.668;2023-07-13T05:31:55;101289.13;;;26.19;100.00
77776;BME280;66965;43.328;6.668;2023-07-13T05:34:20;101286.69;;;26.27;100.00
77776;BME280;66965;43.328;6.668;2023-07-13T05:36:46;101293.16;;;26.36;100.00
77776;BME280;66965;43.328;6.668;2023-07-13T05:39:11;101279.59;;;26.37;100.00
77776;BME280;66965;43.328;6.668;2023-07-13T05:41:37;101289.63;;;26.35;100.00
77776;BME280;66965;43.328;6.668;2023-07-13T05:44:03;101279.97;;;26.44;100.00
77776;BME280;66965;43.328;6.668;2023-07-13T05:46:28;101283.00;;;26.39;100.00
77776;BME280;66965;43.328;6.668;2023-07-13T05:48:54;101273.97;;;26.40;100.00
77776;BME280;66965;43.328;6.668;2023-07-13T05:51:19;101270.31;;;26.41;100.00
77776;BME280;66965;43.328;6.668;2023-07-13T05:53:45;101272.38;;;26.49;100.00
77776;BME280;66965;43.328;6.668;2023-07-13T05:56:10;101272.25;;;26.50;100.00
77776;BME280;66965;43.328;6.668;2023-07-13T05:58:36;101273.97;;;26.52;100.00
77776;BME280;66965;43.328;6.668;2023-07-13T06:01:05;101272.22;;;26.62;100.00
77776;BME280;66965;43.328;6.668;2023-07-13T06:03:31;101267.38;;;26.56;100.00
77776;BME280;66965;43.328;6.668;2023-07-13T06:05:56;101272.97;;;26.64;100.00
77776;BME280;66965;43.328;6.668;2023-07-13T06:08:22;101270.03;;;26.78;100.00
77776;BME280;66965;43.328;6.668;2023-07-13T06:10:47;101276.72;;;26.94;100.00
77776;BME280;66965;43.328;6.668;2023-07-13T06:13:12;101277.34;;;26.98;100.00
77776;BME280;66965;43.328;6.668;2023-07-13T06:15:38;101272.44;;;26.92;100.00
77776;BME280;66965;43.328;6.668;2023-07-13T06:18:03;101269.66;;;26.93;100.00
77776;BME280;66965;43.328;6.668;2023-07-13T06:20:29;101286.72;;;27.15;100.00
77776;BME280;66965;43.328;6.668;2023-07-13T06:22:55;101275.94;;;27.15;100.00
77776;BME280;66965;43.328;6.668;2023-07-13T06:25:20;101272.34;;;27.25;100.00
77776;BME280;66965;43.328;6.668;2023-07-13T06:27:45;101276.72;;;27.37;100.00
77776;BME280;66965;43.328;6.668;2023-07-13T06:30:11;101277.84;;;27.35;100.00
77776;BME280;66965;43.328;6.668;2023-07-13T06:32:37;101269.16;;;27.31;100.00
77776;BME280;66965;43.328;6.668;2023-07-13T06:35:03;101270.09;;;27.41;100.00
77776;BME280;66965;43.328;6.668;2023-07-13T06:37:29;101275.13;;;27.46;100.00
77776;BME280;66965;43.328;6.668;2023-07-13T06:39:54;101277.22;;;27.63;100.00
77776;BME280;66965;43.328;6.668;2023-07-13T06:42:20;101276.56;;;27.71;100.00
77776;BME280;66965;43.328;6.668;2023-07-13T06:44:46;101283.28;;;27.97;100.00
77776;BME280;66965;43.328;6.668;2023-07-13T06:47:11;101274.06;;;27.99;100.00
77776;BME280;66965;43.328;6.668;2023-07-13T06:49:37;101279.53;;;28.09;100.00
77776;BME280;66965;43.328;6.668;2023-07-13T06:52:02;101279.72;;;28.17;100.00
77776;BME280;66965;43.328;6.668;2023-07-13T06:54:28;101284.91;;;28.09;100.00
77776;BME280;66965;43.328;6.668;2023-07-13T06:56:53;101284.72;;;28.21;100.00
77776;BME280;66965;43.328;6.668;2023-07-13T06:59:19;101290.03;;;28.12;100.00
77776;BME280;66965;43.328;6.668;2023-07-13T07:01:44;101298.31;;;28.20;100.00
77776;BME280;66965;43.328;6.668;2023-07-13T07:04:09;101299.34;;;28.49;100.00
77776;BME280;66965;43.328;6.668;2023-07-13T07:06:35;101293.09;;;28.58;100.00
77776;BME280;66965;43.328;6.668;2023-07-13T07:09:00;101291.06;;;28.71;100.00
77776;BME280;66965;43.328;6.668;2023-07-13T07:11:25;101296.31;;;28.73;100.00
77776;BME280;66965;43.328;6.668;2023-07-13T07:13:52;101298.34;;;28.90;100.00
77776;BME280;66965;43.328;6.668;2023-07-13T07:16:19;101296.81;;;29.07;100.00
77776;BME280;66965;43.328;6.668;2023-07-13T07:18:45;101295.97;;;29.16;100.00
77776;BME280;66965;43.328;6.668;2023-07-13T07:21:11;101305.19;;;29.04;100.00
77776;BME280;66965;43.328;6.668;2023-07-13T07:23:36;101303.84;;;29.38;100.00
77776;BME280;66965;43.328;6.668;2023-07-13T07:26:02;101297.28;;;29.41;100.00
77776;BME280;66965;43.328;6.668;2023-07-13T07:28:28;101307.19;;;29.21;100.00
77776;BME280;66965;43.328;6.668;2023-07-13T07:30:56;101292.88;;;29.49;100.00
77776;BME280;66965;43.328;6.668;2023-07-13T07:33:22;101300.16;;;29.58;100.00
77776;BME280;66965;43.328;6.668;2023-07-13T07:35:48;101291.34;;;29.56;100.00
77776;BME280;66965;43.328;6.668;2023-07-13T07:38:13;101290.31;;;29.38;100.00
77776;BME280;66965;43.328;6.668;2023-07-13T07:40:39;101287.34;;;29.51;100.00
77776;BME280;66965;43.328;6.668;2023-07-13T07:43:06;101289.88;;;29.71;100.00
77776;BME280;66965;43.328;6.668;2023-07-13T07:45:31;101288.47;;;29.86;100.00
77776;BME280;66965;43.328;6.668;2023-07-13T07:47:56;101282.72;;;30.09;100.00
77776;BME280;66965;43.328;6.668;2023-07-13T07:50:25;101288.34;;;30.34;100.00
77776;BME280;66965;43.328;6.668;2023-07-13T07:52:50;101283.06;;;30.33;100.00
77776;BME280;66965;43.328;6.668;2023-07-13T07:55:16;101282.50;;;30.66;100.00
77776;BME280;66965;43.328;6.668;2023-07-13T07:57:41;101280.53;;;30.68;100.00
77776;BME280;66965;43.328;6.668;2023-07-13T08:00:07;101281.44;;;30.49;100.00
77776;BME280;66965;43.328;6.668;2023-07-13T08:02:33;101286.50;;;31.17;100.00
77776;BME280;66965;43.328;6.668;2023-07-13T08:04:58;101277.91;;;31.03;100.00
77776;BME280;66965;43.328;6.668;2023-07-13T08:07:24;101281.94;;;31.35;100.00
77776;BME280;66965;43.328;6.668;2023-07-13T08:09:52;101283.13;;;31.15;100.00
77776;BME280;66965;43.328;6.668;2023-07-13T08:12:18;101265.53;;;31.01;100.00
77776;BME280;66965;43.328;6.668;2023-07-13T08:14:43;101267.81;;;30.96;100.00
77776;BME280;66965;43.328;6.668;2023-07-13T08:17:08;101272.81;;;31.36;100.00
77776;BME280;66965;43.328;6.668;2023-07-13T08:19:34;101270.81;;;31.55;100.00
77776;BME280;66965;43.328;6.668;2023-07-13T08:21:59;101269.47;;;31.42;100.00
77776;BME280;66965;43.328;6.668;2023-07-13T08:24:25;101272.28;;;32.19;100.00
77776;BME280;66965;43.328;6.668;2023-07-13T08:26:51;101269.72;;;32.43;100.00
77776;BME280;66965;43.328;6.668;2023-07-13T08:29:16;101264.22;;;32.35;100.00
77776;BME280;66965;43.328;6.668;2023-07-13T08:31:42;101268.47;;;32.30;100.00
77776;BME280;66965;43.328;6.668;2023-07-13T08:34:07;101263.25;;;32.78;100.00
77776;BME280;66965;43.328;6.668;2023-07-13T08:36:32;101264.44;;;32.75;100.00
77776;BME280;66965;43.328;6.668;2023-07-13T08:38:58;101270.50;;;32.36;99.72
77776;BME280;66965;43.328;6.668;2023-07-13T08:41:23;101258.69;;;32.45;98.96
77776;BME280;66965;43.328;6.668;2023-07-13T08:43:52;101259.91;;;32.50;98.39
77776;BME280;66965;43.328;6.668;2023-07-13T08:46:28;101262.69;;;32.58;97.63
77776;BME280;66965;43.328;6.668;2023-07-13T08:49:03;101255.53;;;32.57;96.19
77776;BME280;66965;43.328;6.668;2023-07-13T08:54:09;101250.31;;;32.64;93.88
77776;BME280;66965;43.328;6.668;2023-07-13T08:56:37;101248.44;;;33.38;90.69
77776;BME280;66965;43.328;6.668;2023-07-13T08:59:10;101246.53;;;33.15;90.08
77776;BME280;66965;43.328;6.668;2023-07-13T09:05:01;101242.63;;;33.33;88.03
77776;BME280;66965;43.328;6.668;2023-07-13T09:10:35;101229.88;;;33.98;84.11
77776;BME280;66965;43.328;6.668;2023-07-13T09:15:52;101228.97;;;34.22;85.12
77776;BME280;66965;43.328;6.668;2023-07-13T09:18:32;101237.31;;;34.05;83.35
77776;BME280;66965;43.328;6.668;2023-07-13T09:21:10;101244.16;;;33.92;83.78
77776;BME280;66965;43.328;6.668;2023-07-13T09:23:38;101235.19;;;33.60;86.44
77776;BME280;66965;43.328;6.668;2023-07-13T09:26:09;101237.69;;;34.10;84.68
77776;BME280;66965;43.328;6.668;2023-07-13T09:28:42;101237.28;;;34.29;84.44
77776;BME280;66965;43.328;6.668;2023-07-13T09:31:17;101240.22;;;34.66;81.17
77776;BME280;66965;43.328;6.668;2023-07-13T09:33:44;101242.69;;;33.66;84.87
77776;BME280;66965;43.328;6.668;2023-07-13T09:36:30;101231.94;;;33.80;86.26
77776;BME280;66965;43.328;6.668;2023-07-13T09:41:36;101233.84;;;34.74;80.79
77776;BME280;66965;43.328;6.668;2023-07-13T09:44:12;101226.78;;;34.57;82.01
77776;BME280;66965;43.328;6.668;2023-07-13T09:46:42;101223.28;;;34.40;81.23
77776;BME280;66965;43.328;6.668;2023-07-13T09:49:10;101234.91;;;34.26;82.66
77776;BME280;66965;43.328;6.668;2023-07-13T09:51:37;101236.22;;;34.38;81.25
77776;BME280;66965;43.328;6.668;2023-07-13T09:54:03;101238.16;;;35.67;76.79
77776;BME280;66965;43.328;6.668;2023-07-13T09:56:29;101229.63;;;35.85;76.48
77776;BME280;66965;43.328;6.668;2023-07-13T09:58:55;101239.50;;;34.95;78.86
77776;BME280;66965;43.328;6.668;2023-07-13T10:01:36;101234.03;;;35.86;75.75
77776;BME280;66965;43.328;6.668;2023-07-13T10:04:02;101233.50;;;35.07;77.15
77776;BME280;66965;43.328;6.668;2023-07-13T10:06:35;101230.72;;;35.38;77.16
77776;BME280;66965;43.328;6.668;2023-07-13T10:09:02;101252.50;;;35.98;75.07
77776;BME280;66965;43.328;6.668;2023-07-13T10:11:29;101242.75;;;36.33;72.89
77776;BME280;66965;43.328;6.668;2023-07-13T10:14:00;101247.56;;;35.64;73.72
77776;BME280;66965;43.328;6.668;2023-07-13T10:16:32;101243.88;;;35.35;77.06
77776;BME280;66965;43.328;6.668;2023-07-13T10:19:01;101248.78;;;35.62;77.41
77776;BME280;66965;43.328;6.668;2023-07-13T10:21:41;101240.16;;;35.28;77.13
77776;BME280;66965;43.328;6.668;2023-07-13T10:24:27;101240.22;;;35.80;76.81
77776;BME280;66965;43.328;6.668;2023-07-13T10:27:15;101236.28;;;35.97;73.52
77776;BME280;66965;43.328;6.668;2023-07-13T10:29:54;101234.22;;;35.84;73.00
77776;BME280;66965;43.328;6.668;2023-07-13T10:32:22;101246.47;;;36.76;69.83
77776;BME280;66965;43.328;6.668;2023-07-13T10:34:50;101236.03;;;36.86;66.97
77776;BME280;66965;43.328;6.668;2023-07-13T10:37:23;101236.16;;;36.13;68.09
77776;BME280;66965;43.328;6.668;2023-07-13T10:39:52;101247.44;;;36.68;67.38
77776;BME280;66965;43.328;6.668;2023-07-13T10:42:28;101240.06;;;36.69;67.06
77776;BME280;66965;43.328;6.668;2023-07-13T10:44:54;101251.22;;;36.53;66.68
77776;BME280;66965;43.328;6.668;2023-07-13T10:47:20;101238.31;;;36.61;65.86
77776;BME280;66965;43.328;6.668;2023-07-13T10:49:54;101244.72;;;37.68;62.15
77776;BME280;66965;43.328;6.668;2023-07-13T10:52:41;101234.22;;;38.33;59.79
77776;BME280;66965;43.328;6.668;2023-07-13T10:58:00;101232.16;;;36.59;66.03
77776;BME280;66965;43.328;6.668;2023-07-13T11:00:26;101231.66;;;36.70;65.97
77776;BME280;66965;43.328;6.668;2023-07-13T11:02:57;101219.84;;;36.84;62.76
77776;BME280;66965;43.328;6.668;2023-07-13T11:05:32;101243.31;;;37.57;61.22
77776;BME280;66965;43.328;6.668;2023-07-13T11:10:56;101220.19;;;36.75;63.89
77776;BME280;66965;43.328;6.668;2023-07-13T11:21:20;101222.56;;;38.25;48.89
77776;BME280;66965;43.328;6.668;2023-07-13T11:24:04;101220.16;;;39.03;51.64
77776;BME280;66965;43.328;6.668;2023-07-13T11:31:40;101218.44;;;38.08;56.38
77776;BME280;66965;43.328;6.668;2023-07-13T11:34:13;101202.75;;;37.88;53.06
77776;BME280;66965;43.328;6.668;2023-07-13T11:36:43;101190.66;;;38.51;53.31
77776;BME280;66965;43.328;6.668;2023-07-13T11:39:15;101209.75;;;37.42;47.81
77776;BME280;66965;43.328;6.668;2023-07-13T11:41:53;101205.69;;;38.69;48.03
77776;BME280;66965;43.328;6.668;2023-07-13T11:44:24;101206.25;;;38.51;51.20
77776;BME280;66965;43.328;6.668;2023-07-13T11:46:54;101201.66;;;38.65;51.48
77776;BME280;66965;43.328;6.668;2023-07-13T11:49:23;101192.19;;;38.74;48.15
77776;BME280;66965;43.328;6.668;2023-07-13T11:51:51;101203.97;;;38.61;45.63
77776;BME280;66965;43.328;6.668;2023-07-13T11:57:02;101190.16;;;38.89;42.30
77776;BME280;66965;43.328;6.668;2023-07-13T11:59:32;101187.88;;;39.58;37.04
77776;BME280;66965;43.328;6.668;2023-07-13T12:01:58;101179.66;;;39.78;35.18
77776;BME280;66965;43.328;6.668;2023-07-13T12:04:28;101186.16;;;38.98;37.10
77776;BME280;66965;43.328;6.668;2023-07-13T12:07:16;101188.84;;;38.72;40.04
77776;BME280;66965;43.328;6.668;2023-07-13T12:09:42;101193.16;;;39.27;36.18
77776;BME280;66965;43.328;6.668;2023-07-13T12:12:18;101185.34;;;39.50;34.86
77776;BME280;66965;43.328;6.668;2023-07-13T12:14:44;101191.47;;;39.58;35.57
77776;BME280;66965;43.328;6.668;2023-07-13T12:17:17;101194.03;;;39.21;39.42
77776;BME280;66965;43.328;6.668;2023-07-13T12:19:43;101160.47;;;39.25;41.35
77776;BME280;66965;43.328;6.668;2023-07-13T12:22:11;101170.31;;;39.85;38.80
77776;BME280;66965;43.328;6.668;2023-07-13T12:24:38;101193.16;;;39.53;40.98
77776;BME280;66965;43.328;6.668;2023-07-13T12:27:05;101181.38;;;40.36;38.47
77776;BME280;66965;43.328;6.668;2023-07-13T12:29:33;101188.09;;;39.76;40.37
77776;BME280;66965;43.328;6.668;2023-07-13T12:31:59;101195.31;;;40.86;38.42
77776;BME280;66965;43.328;6.668;2023-07-13T12:34:26;101175.66;;;39.67;38.58
77776;BME280;66965;43.328;6.668;2023-07-13T12:36:58;101192.47;;;40.16;37.53
77776;BME280;66965;43.328;6.668;2023-07-13T12:39:47;101186.41;;;39.49;39.51
77776;BME280;66965;43.328;6.668;2023-07-13T12:42:28;101185.16;;;39.71;38.03
77776;BME280;66965;43.328;6.668;2023-07-13T12:45:18;101186.31;;;40.21;34.21
77776;BME280;66965;43.328;6.668;2023-07-13T12:47:48;101192.69;;;39.95;36.58
77776;BME280;66965;43.328;6.668;2023-07-13T12:50:18;101188.41;;;40.25;33.54
77776;BME280;66965;43.328;6.668;2023-07-13T12:52:44;101184.22;;;40.99;32.69
77776;BME280;66965;43.328;6.668;2023-07-13T12:55:15;101177.34;;;41.88;33.67
77776;BME280;66965;43.328;6.668;2023-07-13T12:57:56;101168.00;;;40.46;35.51
77776;BME280;66965;43.328;6.668;2023-07-13T13:00:27;101176.88;;;39.84;35.91
77776;BME280;66965;43.328;6.668;2023-07-13T13:02:55;101169.97;;;39.23;36.68
77776;BME280;66965;43.328;6.668;2023-07-13T13:05:21;101167.25;;;40.26;33.48
77776;BME280;66965;43.328;6.668;2023-07-13T13:07:50;101154.91;;;39.84;33.46
77776;BME280;66965;43.328;6.668;2023-07-13T13:10:15;101157.94;;;40.71;33.13
77776;BME280;66965;43.328;6.668;2023-07-13T13:12:41;101162.63;;;40.71;31.22
77776;BME280;66965;43.328;6.668;2023-07-13T13:15:10;101164.50;;;40.33;31.32
77776;BME280;66965;43.328;6.668;2023-07-13T13:17:37;101160.44;;;39.71;33.78
77776;BME280;66965;43.328;6.668;2023-07-13T13:20:15;101161.72;;;40.77;32.99
77776;BME280;66965;43.328;6.668;2023-07-13T13:22:41;101162.72;;;41.45;32.16
77776;BME280;66965;43.328;6.668;2023-07-13T13:25:10;101159.34;;;41.43;32.78